sensor_id;sensor_type;location;lat;lon;timestamp;pressure;altitude;pressure_sealevel;temperature;humidity
77869;BME280;67231;59.144;37.934;2023-03-25T00:01:21;98594.16;;;3.80;84.47
77869;BME280;67231;59.144;37.934;2023-03-25T00:03:50;98588.63;;;3.83;84.35
77869;BME280;67231;59.144;37.934;2023-03-25T00:06:19;98588.34;;;3.86;84.27
77869;BME280;67231;59.144;37.934;2023-03-25T00:08:45;98582.28;;;3.86;84.16
77869;BME280;67231;59.144;37.934;2023-03-25T00:11:11;98569.16;;;3.86;84.63
77869;BME280;67231;59.144;37.934;2023-03-25T00:13:38;98569.97;;;3.86;84.17
77869;BME280;67231;59.144;37.934;2023-03-25T00:16:06;98557.69;;;3.87;84.24
77869;BME280;67231;59.144;37.934;2023-03-25T00:18:32;98562.13;;;3.86;84.25
77869;BME280;67231;59.144;37.934;2023-03-25T00:21:03;98546.38;;;3.86;83.90
77869;BME280;67231;59.144;37.934;2023-03-25T00:23:31;98551.63;;;3.86;84.08
77869;BME280;67231;59.144;37.934;2023-03-25T00:25:57;98538.78;;;3.83;83.95
77869;BME280;67231;59.144;37.934;2023-03-25T00:28:30;98534.50;;;3.82;84.21
77869;BME280;67231;59.144;37.934;2023-03-25T00:31:00;98525.13;;;3.79;84.20
77869;BME280;67231;59.144;37.934;2023-03-25T00:33:27;98519.38;;;3.76;84.12
77869;BME280;67231;59.144;37.934;2023-03-25T00:35:54;98519.66;;;3.73;84.38
77869;BME280;67231;59.144;37.934;2023-03-25T00:38:28;98531.41;;;3.69;83.86
77869;BME280;67231;59.144;37.934;2023-03-25T00:41:23;98521.34;;;3.64;84.16
77869;BME280;67231;59.144;37.934;2023-03-25T00:44:00;98514.88;;;3.58;84.06
77869;BME280;67231;59.144;37.934;2023-03-25T00:46:30;98509.41;;;3.52;84.22
77869;BME280;67231;59.144;37.934;2023-03-25T00:48:58;98514.78;;;3.50;84.21
77869;BME280;67231;59.144;37.934;2023-03-25T00:51:25;98518.38;;;3.49;84.29
77869;BME280;67231;59.144;37.934;2023-03-25T00:53:54;98521.13;;;3.47;84.45
77869;BME280;67231;59.144;37.934;2023-03-25T00:56:22;98524.56;;;3.48;84.47
77869;BME280;67231;59.144;37.934;2023-03-25T00:58:49;98521.13;;;3.47;84.35
77869;BME280;67231;59.144;37.934;2023-03-25T01:01:19;98521.94;;;3.48;84.30
77869;BME280;67231;59.144;37.934;2023-03-25T01:03:49;98511.59;;;3.46;84.28
77869;BME280;67231;59.144;37.934;2023-03-25T01:06:25;98513.41;;;3.46;84.68
77869;BME280;67231;59.144;37.934;2023-03-25T01:08:56;98512.44;;;3.47;84.57
77869;BME280;67231;59.144;37.934;2023-03-25T01:11:28;98521.94;;;3.48;84.54
77869;BME280;67231;59.144;37.934;2023-03-25T01:13:56;98520.31;;;3.47;84.42
77869;BME280;67231;59.144;37.934;2023-03-25T01:16:22;98503.59;;;3.48;84.24
77869;BME280;67231;59.144;37.934;2023-03-25T01:18:49;98499.34;;;3.47;84.43
77869;BME280;67231;59.144;37.934;2023-03-25T01:21:17;98479.31;;;3.46;84.27
77869;BME280;67231;59.144;37.934;2023-03-25T01:23:43;98480.13;;;3.46;84.22
77869;BME280;67231;59.144;37.934;2023-03-25T01:26:10;98480.28;;;3.45;84.15
77869;BME280;67231;59.144;37.934;2023-03-25T01:28:39;98490.09;;;3.43;84.00
77869;BME280;67231;59.144;37.934;2023-03-25T01:31:08;98469.41;;;3.40;84.31
77869;BME280;67231;59.144;37.934;2023-03-25T01:33:35;98463.34;;;3.39;83.88
77869;BME280;67231;59.144;37.934;2023-03-25T01:36:02;98476.59;;;3.38;84.02
77869;BME280;67231;59.144;37.934;2023-03-25T01:38:29;98460.19;;;3.36;83.95
77869;BME280;67231;59.144;37.934;2023-03-25T01:40:56;98472.59;;;3.34;83.88
77869;BME280;67231;59.144;37.934;2023-03-25T01:43:23;98464.88;;;3.32;84.04
77869;BME280;67231;59.144;37.934;2023-03-25T01:45:50;98447.53;;;3.31;83.91
77869;BME280;67231;59.144;37.934;2023-03-25T01:48:22;98444.38;;;3.27;84.02
77869;BME280;67231;59.144;37.934;2023-03-25T01:50:56;98453.34;;;3.25;83.93
77869;BME280;67231;59.144;37.934;2023-03-25T01:53:29;98433.31;;;3.24;84.04
77869;BME280;67231;59.144;37.934;2023-03-25T01:55:59;98423.28;;;3.19;83.97
77869;BME280;67231;59.144;37.934;2023-03-25T01:58:28;98411.44;;;3.15;83.89
77869;BME280;67231;59.144;37.934;2023-03-25T02:00:56;98411.59;;;3.14;83.80
77869;BME280;67231;59.144;37.934;2023-03-25T02:03:23;98409.13;;;3.12;83.71
77869;BME280;67231;59.144;37.934;2023-03-25T02:05:57;98405.53;;;3.13;83.86
77869;BME280;67231;59.144;37.934;2023-03-25T02:08:24;98403.19;;;3.10;84.14
77869;BME280;67231;59.144;37.934;2023-03-25T02:10:51;98381.69;;;3.06;83.62
77869;BME280;67231;59.144;37.934;2023-03-25T02:13:19;98375.34;;;3.09;83.96
77869;BME280;67231;59.144;37.934;2023-03-25T02:16:07;98378.34;;;3.14;83.86
77869;BME280;67231;59.144;37.934;2023-03-25T02:27:17;98349.75;;;2.93;83.46
77869;BME280;67231;59.144;37.934;2023-03-25T02:30:34;98326.75;;;2.87;83.48
77869;BME280;67231;59.144;37.934;2023-03-25T02:38:51;98300.50;;;2.69;83.49
77869;BME280;67231;59.144;37.934;2023-03-25T02:41:36;98297.22;;;2.67;83.24
77869;BME280;67231;59.144;37.934;2023-03-25T02:44:20;98287.69;;;2.66;83.53
77869;BME280;67231;59.144;37.934;2023-03-25T02:46:54;98282.59;;;2.64;83.36
77869;BME280;67231;59.144;37.934;2023-03-25T02:49:29;98274.09;;;2.62;83.09
77869;BME280;67231;59.144;37.934;2023-03-25T02:52:30;98262.78;;;2.62;83.07
77869;BME280;67231;59.144;37.934;2023-03-25T02:55:01;98269.81;;;2.61;83.02
77869;BME280;67231;59.144;37.934;2023-03-25T02:57:32;98240.19;;;2.61;83.29
77869;BME280;67231;59.144;37.934;2023-03-25T03:00:00;98246.09;;;2.63;83.48
77869;BME280;67231;59.144;37.934;2023-03-25T03:02:32;98234.38;;;2.67;83.22
77869;BME280;67231;59.144;37.934;2023-03-25T03:05:00;98236.69;;;2.70;83.13
77869;BME280;67231;59.144;37.934;2023-03-25T03:07:32;98226.59;;;2.75;83.23
77869;BME280;67231;59.144;37.934;2023-03-25T03:10:22;98219.94;;;2.81;83.14
77869;BME280;67231;59.144;37.934;2023-03-25T03:15:55;98205.75;;;2.83;82.75
77869;BME280;67231;59.144;37.934;2023-03-25T03:18:38;98200.34;;;2.85;82.79
77869;BME280;67231;59.144;37.934;2023-03-25T03:21:33;98204.78;;;2.84;82.96
77869;BME280;67231;59.144;37.934;2023-03-25T03:24:11;98210.00;;;2.84;82.96
77869;BME280;67231;59.144;37.934;2023-03-25T03:26:48;98200.88;;;2.88;83.00
77869;BME280;67231;59.144;37.934;2023-03-25T03:29:26;98189.28;;;2.91;82.77
77869;BME280;67231;59.144;37.934;2023-03-25T03:32:12;98200.28;;;2.95;82.99
77869;BME280;67231;59.144;37.934;2023-03-25T03:34:47;98179.31;;;2.95;83.33
77869;BME280;67231;59.144;37.934;2023-03-25T03:37:20;98155.91;;;2.93;83.01
77869;BME280;67231;59.144;37.934;2023-03-25T03:39:48;98134.94;;;2.93;83.04
77869;BME280;67231;59.144;37.934;2023-03-25T03:42:27;98135.91;;;2.92;83.20
77869;BME280;67231;59.144;37.934;2023-03-25T03:45:02;98134.13;;;2.92;83.05
77869;BME280;67231;59.144;37.934;2023-03-25T03:47:40;98125.44;;;2.92;83.45
77869;BME280;67231;59.144;37.934;2023-03-25T03:50:10;98124.91;;;2.88;83.40
77869;BME280;67231;59.144;37.934;2023-03-25T03:52:46;98100.81;;;2.85;83.35
77869;BME280;67231;59.144;37.934;2023-03-25T03:55:22;98102.63;;;2.84;83.41
77869;BME280;67231;59.144;37.934;2023-03-25T03:58:01;98114.06;;;2.83;83.38
77869;BME280;67231;59.144;37.934;2023-03-25T04:00:36;98098.50;;;2.82;83.57
77869;BME280;67231;59.144;37.934;2023-03-25T04:03:13;98094.22;;;2.81;83.74
77869;BME280;67231;59.144;37.934;2023-03-25T04:05:51;98077.69;;;2.80;83.67
77869;BME280;67231;59.144;37.934;2023-03-25T04:08:35;98068.88;;;2.81;83.66
77869;BME280;67231;59.144;37.934;2023-03-25T04:11:11;98066.09;;;2.83;84.09
77869;BME280;67231;59.144;37.934;2023-03-25T04:13:43;98040.72;;;2.83;83.82
77869;BME280;67231;59.144;37.934;2023-03-25T04:16:12;98040.72;;;2.83;83.73
77869;BME280;67231;59.144;37.934;2023-03-25T04:18:38;98032.72;;;2.85;83.73
77869;BME280;67231;59.144;37.934;2023-03-25T04:21:05;98036.16;;;2.85;83.97
77869;BME280;67231;59.144;37.934;2023-03-25T04:23:31;98022.25;;;2.85;83.63
77869;BME280;67231;59.144;37.934;2023-03-25T04:25:59;98023.06;;;2.85;83.85
77869;BME280;67231;59.144;37.934;2023-03-25T04:28:28;98015.34;;;2.84;83.58
77869;BME280;67231;59.144;37.934;2023-03-25T04:30:54;98019.78;;;2.83;83.82
77869;BME280;67231;59.144;37.934;2023-03-25T04:33:22;98002.41;;;2.82;83.67
77869;BME280;67231;59.144;37.934;2023-03-25T04:35:49;98010.25;;;2.82;83.81
77869;BME280;67231;59.144;37.934;2023-03-25T04:38:17;98020.75;;;2.82;83.32
77869;BME280;67231;59.144;37.934;2023-03-25T04:40:45;98020.59;;;2.84;83.73
77869;BME280;67231;59.144;37.934;2023-03-25T04:43:15;98034.22;;;2.87;84.06
77869;BME280;67231;59.144;37.934;2023-03-25T04:45:43;98051.41;;;2.90;83.88
77869;BME280;67231;59.144;37.934;2023-03-25T04:48:24;98034.72;;;2.91;83.82
77869;BME280;67231;59.144;37.934;2023-03-25T04:50:58;98028.66;;;2.90;83.93
77869;BME280;67231;59.144;37.934;2023-03-25T04:53:27;98021.13;;;2.87;83.79
77869;BME280;67231;59.144;37.934;2023-03-25T04:55:54;98018.66;;;2.86;84.21
77869;BME280;67231;59.144;37.934;2023-03-25T04:58:21;98021.44;;;2.84;84.06
77869;BME280;67231;59.144;37.934;2023-03-25T05:00:50;98022.41;;;2.83;84.26
77869;BME280;67231;59.144;37.934;2023-03-25T05:03:17;98025.81;;;2.84;84.21
77869;BME280;67231;59.144;37.934;2023-03-25T05:05:50;98023.06;;;2.85;84.76
77869;BME280;67231;59.144;37.934;2023-03-25T05:08:17;98012.56;;;2.85;84.85
77869;BME280;67231;59.144;37.934;2023-03-25T05:10:43;98018.66;;;2.86;84.65
77869;BME280;67231;59.144;37.934;2023-03-25T05:13:10;98014.22;;;2.86;84.74
77869;BME280;67231;59.144;37.934;2023-03-25T05:15:36;98016.84;;;2.86;84.53
77869;BME280;67231;59.144;37.934;2023-03-25T05:18:11;98010.09;;;2.84;84.81
77869;BME280;67231;59.144;37.934;2023-03-25T05:20:40;98009.00;;;2.86;85.14
77869;BME280;67231;59.144;37.934;2023-03-25T05:23:12;98014.91;;;2.88;85.36
77869;BME280;67231;59.144;37.934;2023-03-25T05:25:47;98001.81;;;2.88;85.02
77869;BME280;67231;59.144;37.934;2023-03-25T05:28:14;97998.22;;;2.89;85.15
77869;BME280;67231;59.144;37.934;2023-03-25T05:30:43;98018.19;;;2.90;84.94
77869;BME280;67231;59.144;37.934;2023-03-25T05:33:12;98001.50;;;2.91;85.34
77869;BME280;67231;59.144;37.934;2023-03-25T05:35:42;98015.56;;;2.90;85.18
77869;BME280;67231;59.144;37.934;2023-03-25T05:38:10;98012.56;;;2.85;85.47
77869;BME280;67231;59.144;37.934;2023-03-25T05:40:46;98019.47;;;2.86;85.56
77869;BME280;67231;59.144;37.934;2023-03-25T05:43:14;98009.50;;;2.90;85.54
77869;BME280;67231;59.144;37.934;2023-03-25T05:45:41;98011.66;;;2.95;85.44
77869;BME280;67231;59.144;37.934;2023-03-25T05:48:07;98021.84;;;2.98;85.34
77869;BME280;67231;59.144;37.934;2023-03-25T05:50:35;98019.72;;;3.01;85.71
77869;BME280;67231;59.144;37.934;2023-03-25T05:53:03;98019.28;;;3.06;85.27
77869;BME280;67231;59.144;37.934;2023-03-25T05:55:29;98006.53;;;3.11;85.51
77869;BME280;67231;59.144;37.934;2023-03-25T05:57:56;98011.97;;;3.18;85.69
77869;BME280;67231;59.144;37.934;2023-03-25T06:00:23;98006.41;;;3.21;85.54
77869;BME280;67231;59.144;37.934;2023-03-25T06:02:50;98010.53;;;3.23;86.03
77869;BME280;67231;59.144;37.934;2023-03-25T06:05:17;98013.81;;;3.25;85.85
77869;BME280;67231;59.144;37.934;2023-03-25T06:07:49;98016.13;;;3.28;85.65
77869;BME280;67231;59.144;37.934;2023-03-25T06:10:16;98004.38;;;3.33;85.96
77869;BME280;67231;59.144;37.934;2023-03-25T06:12:44;97997.16;;;3.35;85.79
77869;BME280;67231;59.144;37.934;2023-03-25T06:15:14;97994.22;;;3.38;85.85
77869;BME280;67231;59.144;37.934;2023-03-25T06:17:43;97980.81;;;3.41;85.85
77869;BME280;67231;59.144;37.934;2023-03-25T06:20:13;97978.53;;;3.46;85.77
77869;BME280;67231;59.144;37.934;2023-03-25T06:22:43;97976.41;;;3.50;85.95
77869;BME280;67231;59.144;37.934;2023-03-25T06:25:12;97972.66;;;3.52;85.84
77869;BME280;67231;59.144;37.934;2023-03-25T06:27:39;97973.97;;;3.56;86.05
77869;BME280;67231;59.144;37.934;2023-03-25T06:30:09;97959.91;;;3.57;86.19
77869;BME280;67231;59.144;37.934;2023-03-25T06:32:36;97965.63;;;3.61;86.14
77869;BME280;67231;59.144;37.934;2023-03-25T06:35:05;97970.56;;;3.64;86.32
77869;BME280;67231;59.144;37.934;2023-03-25T06:37:32;97969.91;;;3.62;86.11
77869;BME280;67231;59.144;37.934;2023-03-25T06:40:03;97965.16;;;3.57;86.19
77869;BME280;67231;59.144;37.934;2023-03-25T06:42:31;97965.31;;;3.56;86.26
77869;BME280;67231;59.144;37.934;2023-03-25T06:45:27;97973.00;;;3.57;86.46
77869;BME280;67231;59.144;37.934;2023-03-25T06:48:10;97975.47;;;3.59;86.60
77869;BME280;67231;59.144;37.934;2023-03-25T06:50:37;97956.00;;;3.61;85.93
77869;BME280;67231;59.144;37.934;2023-03-25T06:53:03;97963.88;;;3.70;86.37
77869;BME280;67231;59.144;37.934;2023-03-25T06:55:29;97932.75;;;3.75;85.85
77869;BME280;67231;59.144;37.934;2023-03-25T06:57:55;97929.47;;;3.81;85.85
77869;BME280;67231;59.144;37.934;2023-03-25T07:00:22;97941.97;;;3.87;86.05
77869;BME280;67231;59.144;37.934;2023-03-25T07:02:50;97956.22;;;3.93;85.84
77869;BME280;67231;59.144;37.934;2023-03-25T07:05:16;97940.97;;;3.96;85.63
77869;BME280;67231;59.144;37.934;2023-03-25T07:07:43;97947.41;;;4.02;85.65
77869;BME280;67231;59.144;37.934;2023-03-25T07:10:11;97931.97;;;4.07;85.63
77869;BME280;67231;59.144;37.934;2023-03-25T07:12:38;97917.88;;;4.16;85.26
77869;BME280;67231;59.144;37.934;2023-03-25T07:15:06;97939.38;;;4.28;85.72
77869;BME280;67231;59.144;37.934;2023-03-25T07:17:36;97931.16;;;4.31;85.69
77869;BME280;67231;59.144;37.934;2023-03-25T07:20:06;97917.72;;;4.43;85.67
77869;BME280;67231;59.144;37.934;2023-03-25T07:22:32;97919.19;;;4.45;85.43
77869;BME280;67231;59.144;37.934;2023-03-25T07:24:59;97914.59;;;4.47;85.67
77869;BME280;67231;59.144;37.934;2023-03-25T07:27:25;97919.34;;;4.60;85.63
77869;BME280;67231;59.144;37.934;2023-03-25T07:30:03;97917.72;;;4.67;84.77
77869;BME280;67231;59.144;37.934;2023-03-25T07:32:30;97913.75;;;4.71;84.74
77869;BME280;67231;59.144;37.934;2023-03-25T07:34:56;97927.88;;;4.79;84.47
77869;BME280;67231;59.144;37.934;2023-03-25T07:37:23;97926.19;;;4.86;84.92
77869;BME280;67231;59.144;37.934;2023-03-25T07:39:49;97934.41;;;4.99;84.06
77869;BME280;67231;59.144;37.934;2023-03-25T07:42:15;97935.00;;;5.09;84.18
77869;BME280;67231;59.144;37.934;2023-03-25T07:45:00;97951.94;;;5.07;84.77
77869;BME280;67231;59.144;37.934;2023-03-25T07:47:29;97936.31;;;5.14;84.59
77869;BME280;67231;59.144;37.934;2023-03-25T07:49:56;97919.50;;;5.23;84.08
77869;BME280;67231;59.144;37.934;2023-03-25T07:52:22;97933.47;;;5.32;84.08
77869;BME280;67231;59.144;37.934;2023-03-25T07:54:49;97924.69;;;5.47;83.83
77869;BME280;67231;59.144;37.934;2023-03-25T07:57:15;97921.69;;;5.59;83.53
77869;BME280;67231;59.144;37.934;2023-03-25T07:59:41;97930.59;;;5.81;83.93
77869;BME280;67231;59.144;37.934;2023-03-25T08:02:11;97946.00;;;5.92;82.90
77869;BME280;67231;59.144;37.934;2023-03-25T08:04:38;97936.94;;;5.95;83.40
77869;BME280;67231;59.144;37.934;2023-03-25T08:07:04;97921.81;;;5.97;83.28
77869;BME280;67231;59.144;37.934;2023-03-25T08:09:31;97931.97;;;6.00;82.95
77869;BME280;67231;59.144;37.934;2023-03-25T08:11:57;97936.09;;;6.03;82.75
77869;BME280;67231;59.144;37.934;2023-03-25T08:14:24;97950.00;;;6.11;82.29
77869;BME280;67231;59.144;37.934;2023-03-25T08:16:51;97938.66;;;6.11;82.28
77869;BME280;67231;59.144;37.934;2023-03-25T08:19:17;97940.50;;;6.10;82.61
77869;BME280;67231;59.144;37.934;2023-03-25T08:21:44;97948.69;;;6.15;82.80
77869;BME280;67231;59.144;37.934;2023-03-25T08:24:10;97947.97;;;6.22;82.32
77869;BME280;67231;59.144;37.934;2023-03-25T08:26:36;97948.84;;;6.37;81.99
77869;BME280;67231;59.144;37.934;2023-03-25T08:29:03;97969.13;;;6.51;82.14
77869;BME280;67231;59.144;37.934;2023-03-25T08:31:31;97973.22;;;6.39;81.79
77869;BME280;67231;59.144;37.934;2023-03-25T08:34:01;97980.09;;;6.40;82.45
77869;BME280;67231;59.144;37.934;2023-03-25T08:36:28;97989.41;;;6.28;82.26
77869;BME280;67231;59.144;37.934;2023-03-25T08:38:55;97984.84;;;6.22;82.33
77869;BME280;67231;59.144;37.934;2023-03-25T08:41:21;97982.44;;;6.12;82.40
77869;BME280;67231;59.144;37.934;2023-03-25T08:43:48;97971.56;;;6.15;82.40
77869;BME280;67231;59.144;37.934;2023-03-25T08:46:15;97974.72;;;6.33;81.85
77869;BME280;67231;59.144;37.934;2023-03-25T08:48:41;97981.97;;;6.54;82.04
77869;BME280;67231;59.144;37.934;2023-03-25T08:51:09;97987.22;;;6.78;81.46
77869;BME280;67231;59.144;37.934;2023-03-25T08:53:35;97983.22;;;6.82;81.55
77869;BME280;67231;59.144;37.934;2023-03-25T08:56:01;97994.38;;;6.69;80.98
77869;BME280;67231;59.144;37.934;2023-03-25T08:58:28;97980.72;;;6.65;81.45
77869;BME280;67231;59.144;37.934;2023-03-25T09:00:55;97996.13;;;6.77;81.12
77869;BME280;67231;59.144;37.934;2023-03-25T09:03:23;97976.25;;;6.89;81.44
77869;BME280;67231;59.144;37.934;2023-03-25T09:05:49;97971.84;;;7.19;80.59
77869;BME280;67231;59.144;37.934;2023-03-25T09:08:16;97981.75;;;7.47;80.15
77869;BME280;67231;59.144;37.934;2023-03-25T09:10:42;97980.81;;;7.40;80.27
77869;BME280;67231;59.144;37.934;2023-03-25T09:13:09;97987.22;;;7.31;80.11
77869;BME280;67231;59.144;37.934;2023-03-25T09:15:35;97974.38;;;7.27;80.00
77869;BME280;67231;59.144;37.934;2023-03-25T09:18:04;97972.38;;;7.44;80.33
77869;BME280;67231;59.144;37.934;2023-03-25T09:20:31;97978.19;;;7.55;79.99
77869;BME280;67231;59.144;37.934;2023-03-25T09:22:58;97985.00;;;7.49;79.56
77869;BME280;67231;59.144;37.934;2023-03-25T09:25:24;97974.56;;;7.41;79.67
77869;BME280;67231;59.144;37.934;2023-03-25T09:27:51;97972.38;;;7.44;79.71
77869;BME280;67231;59.144;37.934;2023-03-25T09:30:17;97979.00;;;7.55;80.47
77869;BME280;67231;59.144;37.934;2023-03-25T09:32:43;97977.00;;;7.57;79.59
77869;BME280;67231;59.144;37.934;2023-03-25T09:35:10;97983.44;;;7.70;79.80
77869;BME280;67231;59.144;37.934;2023-03-25T09:37:36;97976.72;;;7.82;79.13
77869;BME280;67231;59.144;37.934;2023-03-25T09:40:03;97976.41;;;7.77;79.25
77869;BME280;67231;59.144;37.934;2023-03-25T09:43:01;97972.13;;;7.91;78.99
77869;BME280;67231;59.144;37.934;2023-03-25T09:45:39;97979.94;;;7.99;78.70
77869;BME280;67231;59.144;37.934;2023-03-25T09:48:30;97981.44;;;7.87;78.48
77869;BME280;67231;59.144;37.934;2023-03-25T09:51:03;97974.34;;;7.72;79.10
77869;BME280;67231;59.144;37.934;2023-03-25T09:53:44;97974.25;;;7.65;79.08
77869;BME280;67231;59.144;37.934;2023-03-25T09:56:18;97970.00;;;7.50;79.35
77869;BME280;67231;59.144;37.934;2023-03-25T09:58:48;97964.19;;;7.39;79.69
77869;BME280;67231;59.144;37.934;2023-03-25T10:06:49;97974.44;;;7.49;79.71
77869;BME280;67231;59.144;37.934;2023-03-25T10:09:33;97987.91;;;7.54;79.83
77869;BME280;67231;59.144;37.934;2023-03-25T10:25:38;97974.16;;;7.59;79.88
77869;BME280;67231;59.144;37.934;2023-03-25T10:28:12;97986.34;;;7.75;78.94
77869;BME280;67231;59.144;37.934;2023-03-25T10:30:47;97983.59;;;7.98;78.58
77869;BME280;67231;59.144;37.934;2023-03-25T10:33:22;97987.94;;;8.06;78.44
77869;BME280;67231;59.144;37.934;2023-03-25T10:35:55;97976.00;;;8.10;78.44
77869;BME280;67231;59.144;37.934;2023-03-25T10:38:23;97970.34;;;8.13;78.25
77869;BME280;67231;59.144;37.934;2023-03-25T10:41:15;97971.69;;;8.24;78.02
77869;BME280;67231;59.144;37.934;2023-03-25T10:43:45;97970.22;;;8.43;77.95
77869;BME280;67231;59.144;37.934;2023-03-25T10:46:31;97954.53;;;8.56;77.62
77869;BME280;67231;59.144;37.934;2023-03-25T10:48:59;97952.13;;;8.61;77.28
77869;BME280;67231;59.144;37.934;2023-03-25T10:51:28;97960.97;;;9.03;76.64
77869;BME280;67231;59.144;37.934;2023-03-25T10:53:55;97962.22;;;9.07;76.41
77869;BME280;67231;59.144;37.934;2023-03-25T10:56:56;97962.38;;;8.99;76.22
77869;BME280;67231;59.144;37.934;2023-03-25T11:00:32;97967.22;;;8.96;76.07
77869;BME280;67231;59.144;37.934;2023-03-25T11:02:30;97953.38;;;8.65;76.32
77869;BME280;67231;59.144;37.934;2023-03-25T11:05:00;97943.34;;;8.39;76.81
77869;BME280;67231;59.144;37.934;2023-03-25T11:07:38;97952.09;;;8.18;77.68
77869;BME280;67231;59.144;37.934;2023-03-25T11:10:27;97954.44;;;8.06;77.70
77869;BME280;67231;59.144;37.934;2023-03-25T11:12:55;97950.88;;;7.99;77.97
77869;BME280;67231;59.144;37.934;2023-03-25T11:15:27;97957.50;;;7.88;78.28
77869;BME280;67231;59.144;37.934;2023-03-25T11:20:36;97949.38;;;7.90;79.03
77869;BME280;67231;59.144;37.934;2023-03-25T11:23:27;97943.91;;;8.13;77.91
77869;BME280;67231;59.144;37.934;2023-03-25T11:26:04;97949.19;;;8.34;77.25
77869;BME280;67231;59.144;37.934;2023-03-25T11:31:20;97944.97;;;7.97;78.22
77869;BME280;67231;59.144;37.934;2023-03-25T11:36:37;97940.66;;;7.74;78.84
77869;BME280;67231;59.144;37.934;2023-03-25T11:41:48;97947.66;;;7.82;78.25
77869;BME280;67231;59.144;37.934;2023-03-25T11:46:56;97930.97;;;7.96;78.31
77869;BME280;67231;59.144;37.934;2023-03-25T11:49:24;97930.09;;;8.11;77.95
77869;BME280;67231;59.144;37.934;2023-03-25T11:52:12;97942.94;;;8.14;77.45
77869;BME280;67231;59.144;37.934;2023-03-25T11:54:41;97933.22;;;8.21;77.73
77869;BME280;67231;59.144;37.934;2023-03-25T11:57:18;97923.81;;;8.33;77.33
77869;BME280;67231;59.144;37.934;2023-03-25T11:59:47;97927.44;;;8.32;77.43
77869;BME280;67231;59.144;37.934;2023-03-25T12:02:34;97915.88;;;8.12;77.70
77869;BME280;67231;59.144;37.934;2023-03-25T12:07:50;97906.03;;;8.06;77.83
77869;BME280;67231;59.144;37.934;2023-03-25T12:15:38;97921.63;;;7.79;77.86
77869;BME280;67231;59.144;37.934;2023-03-25T12:18:37;97911.25;;;7.99;77.28
77869;BME280;67231;59.144;37.934;2023-03-25T12:24:08;97919.00;;;8.00;77.52
77869;BME280;67231;59.144;37.934;2023-03-25T12:29:40;97914.59;;;7.86;77.89
77869;BME280;67231;59.144;37.934;2023-03-25T12:32:32;97918.63;;;7.82;77.86
77869;BME280;67231;59.144;37.934;2023-03-25T12:43:58;97929.59;;;8.22;76.74
77869;BME280;67231;59.144;37.934;2023-03-25T13:02:32;97941.47;;;8.11;76.37
77869;BME280;67231;59.144;37.934;2023-03-25T13:07:43;97934.72;;;8.09;76.32
77869;BME280;67231;59.144;37.934;2023-03-25T13:10:17;97934.16;;;8.13;76.20
77869;BME280;67231;59.144;37.934;2023-03-25T13:12:50;97932.97;;;8.16;75.92
77869;BME280;67231;59.144;37.934;2023-03-25T13:15:47;97934.16;;;8.13;75.99
77869;BME280;67231;59.144;37.934;2023-03-25T13:18:20;97935.19;;;8.12;75.71
77869;BME280;67231;59.144;37.934;2023-03-25T13:23:54;97932.19;;;8.15;75.34
77869;BME280;67231;59.144;37.934;2023-03-25T13:26:25;97931.59;;;8.20;75.34
77869;BME280;67231;59.144;37.934;2023-03-25T13:29:15;97933.84;;;8.23;74.95
77869;BME280;67231;59.144;37.934;2023-03-25T13:31:44;97940.53;;;8.19;75.33
77869;BME280;67231;59.144;37.934;2023-03-25T13:34:26;97939.06;;;8.16;74.81
77869;BME280;67231;59.144;37.934;2023-03-25T13:42:47;97936.81;;;7.92;74.56
77869;BME280;67231;59.144;37.934;2023-03-25T13:45:20;97949.56;;;7.88;74.22
77869;BME280;67231;59.144;37.934;2023-03-25T13:47:52;97940.38;;;7.84;74.31
77869;BME280;67231;59.144;37.934;2023-03-25T13:50:25;97949.03;;;7.78;74.34
77869;BME280;67231;59.144;37.934;2023-03-25T13:53:23;97943.66;;;7.71;73.96
77869;BME280;67231;59.144;37.934;2023-03-25T13:58:55;97946.34;;;7.56;74.66
77869;BME280;67231;59.144;37.934;2023-03-25T14:10:53;97933.16;;;7.41;73.60
77869;BME280;67231;59.144;37.934;2023-03-25T14:13:30;97941.25;;;7.40;73.70
77869;BME280;67231;59.144;37.934;2023-03-25T14:16:05;97934.34;;;7.39;73.67
77869;BME280;67231;59.144;37.934;2023-03-25T14:18:45;97943.88;;;7.40;73.43
77869;BME280;67231;59.144;37.934;2023-03-25T14:23:46;97943.53;;;7.43;73.23
77869;BME280;67231;59.144;37.934;2023-03-25T14:26:16;97935.78;;;7.41;73.08
77869;BME280;67231;59.144;37.934;2023-03-25T14:28:44;97937.00;;;7.39;72.51
77869;BME280;67231;59.144;37.934;2023-03-25T14:44:28;97949.34;;;7.38;71.86
77869;BME280;67231;59.144;37.934;2023-03-25T14:46:59;97950.38;;;7.37;71.52
77869;BME280;67231;59.144;37.934;2023-03-25T14:49:46;97946.69;;;7.38;71.38
77869;BME280;67231;59.144;37.934;2023-03-25T14:52:15;97951.16;;;7.38;71.69
77869;BME280;67231;59.144;37.934;2023-03-25T14:54:49;97956.00;;;7.34;71.40
77869;BME280;67231;59.144;37.934;2023-03-25T14:57:21;97959.00;;;7.31;71.27
77869;BME280;67231;59.144;37.934;2023-03-25T14:59:55;97963.47;;;7.31;71.30
77869;BME280;67231;59.144;37.934;2023-03-25T15:02:27;97968.75;;;7.31;70.52
77869;BME280;67231;59.144;37.934;2023-03-25T15:04:58;97965.63;;;7.27;70.66
77869;BME280;67231;59.144;37.934;2023-03-25T15:12:55;97987.75;;;7.41;69.92
77869;BME280;67231;59.144;37.934;2023-03-25T15:15:30;97993.66;;;7.58;68.72
77869;BME280;67231;59.144;37.934;2023-03-25T15:17:58;98004.38;;;7.71;67.99
77869;BME280;67231;59.144;37.934;2023-03-25T15:23:28;98006.81;;;7.88;66.48
77869;BME280;67231;59.144;37.934;2023-03-25T15:25:57;98010.94;;;7.90;65.32
77869;BME280;67231;59.144;37.934;2023-03-25T15:28:34;98019.84;;;7.89;65.35
77869;BME280;67231;59.144;37.934;2023-03-25T15:39:39;98055.16;;;7.73;63.97
77869;BME280;67231;59.144;37.934;2023-03-25T15:42:27;98051.47;;;7.68;64.29
77869;BME280;67231;59.144;37.934;2023-03-25T15:47:52;98080.94;;;7.56;64.60
77869;BME280;67231;59.144;37.934;2023-03-25T15:53:00;98077.66;;;7.54;64.41
77869;BME280;67231;59.144;37.934;2023-03-25T15:55:38;98079.28;;;7.55;63.92